Time;durP1;ratioP1;P1;durP2;ratioP2;P2;SDS_P1;SDS_P2;PMS_P1;PMS_P2;Temp;Humidity;BMP_temperature;BMP_pressure;BME280_temperature;BME280_humidity;BME280_pressure;Samples;Min_cycle;Max_cycle;Signal;HPM_P1;HPM_P2
2022/04/24 00:01:51;;;;;;;16.47;14.37;;;;;;;10.38;90.08;94772.88;5013062;28;20175;-69
2022/04/24 00:04:16;;;;;;;15.87;13.27;;;;;;;10.48;89.63;94775.41;5027046;28;20583;-68
2022/04/24 00:06:42;;;;;;;14.60;12.10;;;;;;;10.56;88.60;94774.84;5032832;28;20190;-68
2022/04/24 00:09:07;;;;;;;16.20;13.60;;;;;;;10.61;88.19;94776.63;5031955;28;20649;-68
2022/04/24 00:11:33;;;;;;;16.20;14.20;;;;;;;10.55;88.52;94767.25;5032255;28;20195;-69
2022/04/24 00:13:58;;;;;;;14.73;13.07;;;;;;;10.62;88.48;94768.50;5034826;28;20656;-68
2022/04/24 00:16:24;;;;;;;16.67;14.13;;;;;;;10.54;88.32;94765.66;5036028;28;20595;-68
2022/04/24 00:18:49;;;;;;;16.67;14.10;;;;;;;10.60;87.78;94761.94;5036274;28;20285;-68
2022/04/24 00:21:15;;;;;;;16.17;14.47;;;;;;;10.52;89.19;94757.31;5035514;28;20193;-69
2022/04/24 00:23:40;;;;;;;18.33;14.30;;;;;;;10.50;89.01;94762.03;5035382;28;20179;-69
2022/04/24 00:26:05;;;;;;;16.90;14.20;;;;;;;10.46;88.56;94759.22;5035538;28;20187;-69
2022/04/24 00:28:31;;;;;;;15.57;13.97;;;;;;;10.48;89.40;94751.09;5035868;28;20786;-68
2022/04/24 00:30:56;;;;;;;16.97;14.20;;;;;;;10.38;89.66;94744.88;5035472;28;20229;-69
2022/04/24 00:33:22;;;;;;;16.53;14.03;;;;;;;10.31;89.74;94733.91;5034808;28;20187;-67
2022/04/24 00:35:47;;;;;;;18.20;13.60;;;;;;;10.41;89.54;94736.47;5035821;28;20186;-67
2022/04/24 00:38:13;;;;;;;16.90;14.10;;;;;;;10.34;89.85;94738.63;5017721;28;20182;-67
2022/04/24 00:40:38;;;;;;;20.00;13.57;;;;;;;10.39;89.17;94737.78;5035377;28;20661;-68
2022/04/24 00:43:04;;;;;;;17.03;13.63;;;;;;;10.42;89.35;94732.00;5035642;28;20262;-69
2022/04/24 00:45:29;;;;;;;16.47;13.53;;;;;;;10.27;90.04;94726.88;5035591;28;20578;-68
2022/04/24 00:47:56;;;;;;;18.63;15.00;;;;;;;10.41;89.76;94728.63;5035358;28;20191;-68
2022/04/24 00:50:22;;;;;;;15.77;14.07;;;;;;;10.26;90.41;94720.09;5035500;28;20183;-68
2022/04/24 00:52:47;;;;;;;18.13;15.73;;;;;;;10.20;90.85;94726.41;5035276;28;20206;-68
2022/04/24 00:55:12;;;;;;;18.57;15.83;;;;;;;10.25;90.62;94729.03;5035069;28;20174;-68
2022/04/24 00:57:41;;;;;;;17.10;14.67;;;;;;;10.14;91.06;94717.03;5035194;28;20258;-68
2022/04/24 01:00:08;;;;;;;17.20;15.00;;;;;;;10.07;92.07;94714.72;5034852;28;20179;-70
2022/04/24 01:02:33;;;;;;;16.73;14.80;;;;;;;9.89;92.97;94705.69;5034734;28;20185;-68
2022/04/24 01:04:59;;;;;;;17.43;15.17;;;;;;;9.93;92.98;94700.69;5035264;28;20523;-69
2022/04/24 01:07:25;;;;;;;16.73;14.93;;;;;;;9.95;92.61;94699.38;5017373;28;20277;-68
2022/04/24 01:09:50;;;;;;;23.37;15.53;;;;;;;10.06;92.63;94707.94;5034812;28;20266;-68
2022/04/24 01:12:16;;;;;;;18.00;16.10;;;;;;;10.15;91.89;94718.56;5035164;28;20202;-68
2022/04/24 01:14:41;;;;;;;16.97;14.07;;;;;;;10.28;90.89;94726.63;5034858;28;20281;-68
2022/04/24 01:17:07;;;;;;;18.00;15.00;;;;;;;10.28;90.78;94723.22;5034922;28;20191;-69
2022/04/24 01:19:33;;;;;;;19.87;15.37;;;;;;;10.23;91.01;94720.66;5034666;28;20183;-69
2022/04/24 01:21:59;;;;;;;17.63;14.57;;;;;;;10.24;90.79;94716.97;5034940;28;20197;-69
2022/04/24 01:24:27;;;;;;;18.57;15.33;;;;;;;10.21;91.17;94720.13;5033553;28;20186;-68
2022/04/24 01:26:53;;;;;;;19.77;15.03;;;;;;;10.12;91.69;94722.53;5034671;28;20736;-69
2022/04/24 01:29:19;;;;;;;20.20;14.73;;;;;;;10.26;91.36;94730.56;5034225;28;20269;-68
2022/04/24 01:31:45;;;;;;;18.77;15.33;;;;;;;10.16;91.43;94728.00;5033733;28;20288;-68
2022/04/24 01:34:11;;;;;;;17.33;14.80;;;;;;;10.24;90.69;94725.63;5034608;28;20183;-67
2022/04/24 01:36:37;;;;;;;17.37;14.33;;;;;;;10.18;91.41;94721.47;5034235;28;20548;-68
2022/04/24 01:39:06;;;;;;;16.00;14.17;;;;;;;10.22;90.82;94722.47;5034660;28;20190;-70
2022/04/24 01:41:32;;;;;;;18.50;15.13;;;;;;;10.28;90.77;94726.63;5034160;28;20210;-68
2022/04/24 01:44:01;;;;;;;18.87;15.53;;;;;;;10.19;90.85;94727.50;5034131;28;20654;-68
2022/04/24 01:46:26;;;;;;;20.73;15.57;;;;;;;10.28;90.46;94734.47;5034725;28;20193;-68
2022/04/24 01:48:52;;;;;;;20.00;15.60;;;;;;;10.37;90.31;94739.88;5034306;28;20645;-68
2022/04/24 01:51:17;;;;;;;18.53;14.50;;;;;;;10.42;90.01;94732.00;5034003;28;20627;-69
2022/04/24 01:53:44;;;;;;;19.47;15.00;;;;;;;10.41;89.71;94749.56;5033803;28;20583;-67
2022/04/24 01:56:11;;;;;;;16.60;14.20;;;;;;;10.41;90.04;94762.66;5034318;28;20187;-68
2022/04/24 01:58:37;;;;;;;16.43;14.30;;;;;;;10.49;89.72;94776.97;5033998;28;20190;-67
2022/04/24 02:01:04;;;;;;;19.20;14.70;;;;;;;10.49;89.27;94787.47;5033685;28;20194;-68
2022/04/24 02:03:30;;;;;;;15.23;13.63;;;;;;;10.50;89.86;94783.00;5033747;28;20292;-69
2022/04/24 02:05:56;;;;;;;18.03;14.40;;;;;;;10.53;89.99;94783.25;5033991;28;20217;-68
2022/04/24 02:08:22;;;;;;;17.03;14.07;;;;;;;10.51;90.15;94790.59;5033711;28;20182;-68
2022/04/24 02:10:48;;;;;;;16.30;14.13;;;;;;;10.55;90.62;94786.34;5016441;28;20189;-67
2022/04/24 02:13:13;;;;;;;15.77;13.13;;;;;;;10.58;91.42;94785.81;5034207;28;20193;-68
2022/04/24 02:15:39;;;;;;;15.73;13.70;;;;;;;10.53;91.40;94785.09;5033734;28;20559;-68
2022/04/24 02:18:05;;;;;;;16.50;13.57;;;;;;;10.71;90.82;94793.03;5033402;28;20193;-68
2022/04/24 02:20:30;;;;;;;15.80;13.80;;;;;;;10.65;90.82;94788.88;5033427;28;20179;-67
2022/04/24 02:22:57;;;;;;;15.23;13.60;;;;;;;10.63;92.64;94793.63;5033265;28;20536;-68
2022/04/24 02:25:24;;;;;;;16.50;13.87;;;;;;;10.60;94.20;94786.31;5033376;28;20528;-68
2022/04/24 02:27:50;;;;;;;15.77;13.80;;;;;;;10.48;97.72;94787.75;5033321;28;20218;-69
2022/04/24 02:30:15;;;;;;;18.87;14.90;;;;;;;10.42;100.00;94790.38;5033245;28;20718;-69
2022/04/24 02:32:41;;;;;;;22.07;17.10;;;;;;;10.39;100.00;94788.31;5032450;28;20212;-69
2022/04/24 02:35:06;;;;;;;18.80;15.60;;;;;;;10.36;100.00;94794.13;5033323;28;20183;-70
2022/04/24 02:37:32;;;;;;;18.73;15.80;;;;;;;10.24;100.00;94825.09;5032379;28;20697;-69
2022/04/24 02:39:59;;;;;;;19.40;15.57;;;;;;;10.23;100.00;94825.38;5033382;28;20179;-68
2022/04/24 02:42:24;;;;;;;20.40;15.37;;;;;;;10.30;100.00;94821.41;5033310;28;20226;-70
2022/04/24 02:44:49;;;;;;;20.90;16.10;;;;;;;10.18;100.00;94831.44;5033428;28;20236;-69
2022/04/24 02:47:16;;;;;;;19.97;15.63;;;;;;;10.15;100.00;94821.44;5033263;28;20292;-68
2022/04/24 02:49:41;;;;;;;19.97;16.37;;;;;;;10.26;100.00;94811.72;5015602;28;20297;-69
2022/04/24 02:52:07;;;;;;;20.53;16.00;;;;;;;10.12;100.00;94808.91;5032990;28;20199;-69
2022/04/24 02:54:32;;;;;;;21.97;16.07;;;;;;;10.16;100.00;94812.56;5032839;28;20641;-69
2022/04/24 02:56:57;;;;;;;19.20;16.07;;;;;;;10.17;100.00;94810.75;5032179;28;20561;-68
2022/04/24 02:59:25;;;;;;;21.63;16.23;;;;;;;10.11;100.00;94804.72;5032807;28;20278;-68
2022/04/24 03:01:51;;;;;;;23.13;17.03;;;;;;;10.31;100.00;94809.06;5032997;28;20701;-68
2022/04/24 03:04:16;;;;;;;19.53;15.47;;;;;;;10.12;100.00;94803.69;5033088;28;20309;-69
2022/04/24 03:06:42;;;;;;;22.87;16.33;;;;;;;10.09;100.00;94803.44;5032939;28;20252;-69
2022/04/24 03:09:07;;;;;;;20.93;16.30;;;;;;;10.09;100.00;94801.59;5032497;28;20555;-69
2022/04/24 03:11:33;;;;;;;22.77;15.97;;;;;;;10.08;100.00;94802.66;5033093;28;20293;-67
2022/04/24 03:13:58;;;;;;;21.23;15.70;;;;;;;10.09;100.00;94813.91;5033050;28;20213;-68
2022/04/24 03:16:25;;;;;;;22.13;16.00;;;;;;;9.97;100.00;94809.78;5033164;28;20588;-67
2022/04/24 03:18:50;;;;;;;24.30;16.97;;;;;;;9.93;100.00;94815.81;5032296;28;20187;-68
2022/04/24 03:21:16;;;;;;;21.43;16.90;;;;;;;9.86;100.00;94818.72;5032200;28;20511;-68
2022/04/24 03:23:41;;;;;;;22.07;16.40;;;;;;;9.95;100.00;94814.50;5032412;28;20535;-70
2022/04/24 03:26:07;;;;;;;21.60;16.37;;;;;;;9.96;100.00;94807.44;5032677;28;20187;-68
2022/04/24 03:28:32;;;;;;;21.77;16.27;;;;;;;9.88;100.00;94810.63;5014685;28;20656;-68
2022/04/24 03:30:58;;;;;;;23.17;16.93;;;;;;;9.91;100.00;94812.72;5032263;28;20668;-69
2022/04/24 03:33:23;;;;;;;19.97;16.30;;;;;;;10.19;100.00;94819.13;5032260;28;20186;-66
2022/04/24 03:35:49;;;;;;;23.03;17.40;;;;;;;10.14;100.00;94821.75;5032858;28;20179;-69
2022/04/24 03:38:14;;;;;;;23.70;16.47;;;;;;;10.04;100.00;94825.19;5032395;28;20550;-68
2022/04/24 03:40:40;;;;;;;22.20;17.07;;;;;;;10.18;100.00;94818.34;5032144;28;20190;-68
2022/04/24 03:43:05;;;;;;;24.93;17.27;;;;;;;10.21;100.00;94819.59;5032885;28;20198;-69
2022/04/24 03:45:31;;;;;;;20.77;16.47;;;;;;;10.18;100.00;94825.41;5032595;28;20610;-69
2022/04/24 03:47:56;;;;;;;23.37;17.70;;;;;;;10.07;100.00;94819.44;5033416;28;20214;-69
2022/04/24 03:50:22;;;;;;;21.70;16.53;;;;;;;9.92;100.00;94827.34;5036550;28;20186;-69
2022/04/24 03:52:47;;;;;;;22.93;17.87;;;;;;;9.85;100.00;94825.03;5036525;28;20193;-68
2022/04/24 03:55:13;;;;;;;22.33;17.20;;;;;;;9.86;100.00;94831.06;5036496;28;20191;-68
2022/04/24 03:57:39;;;;;;;23.57;18.00;;;;;;;9.96;100.00;94831.78;5035871;28;20380;-68
2022/04/24 04:00:05;;;;;;;21.83;17.70;;;;;;;10.02;100.00;94827.31;5036265;28;20594;-68
2022/04/24 04:02:41;;;;;;;21.67;16.47;;;;;;;10.03;100.00;94832.25;5035875;28;20548;-69
2022/04/24 04:05:06;;;;;;;23.17;16.90;;;;;;;9.96;100.00;94836.25;5036569;28;20220;-68
2022/04/24 04:07:32;;;;;;;23.13;17.63;;;;;;;9.83;100.00;94829.75;5035791;28;20269;-69
2022/04/24 04:09:57;;;;;;;28.83;18.30;;;;;;;9.88;100.00;94839.41;5036074;28;20186;-68
2022/04/24 04:12:26;;;;;;;24.07;17.67;;;;;;;9.89;100.00;94840.97;5036608;28;20198;-69
2022/04/24 04:14:51;;;;;;;24.37;17.97;;;;;;;9.95;100.00;94840.69;5035948;28;20183;-69
2022/04/24 04:17:17;;;;;;;24.80;18.20;;;;;;;9.89;100.00;94847.00;5036191;28;20667;-68
2022/04/24 04:19:42;;;;;;;23.40;18.47;;;;;;;9.93;100.00;94848.00;5036414;28;20712;-68
2022/04/24 04:22:08;;;;;;;23.83;18.03;;;;;;;9.99;100.00;94854.00;5017903;28;20186;-68
2022/04/24 04:24:33;;;;;;;23.93;18.83;;;;;;;10.00;100.00;94864.22;5017799;28;20218;-68
2022/04/24 04:26:58;;;;;;;26.23;18.97;;;;;;;10.01;100.00;94862.38;5035603;28;20266;-69
2022/04/24 04:29:24;;;;;;;29.20;20.50;;;;;;;9.88;100.00;94870.81;5035977;28;20224;-69
2022/04/24 04:31:49;;;;;;;27.30;19.77;;;;;;;9.75;100.00;94874.78;5035538;28;20568;-68
2022/04/24 04:34:14;;;;;;;31.07;20.83;;;;;;;9.93;100.00;94884.66;5035679;28;20191;-67
2022/04/24 04:36:40;;;;;;;27.37;20.37;;;;;;;9.84;100.00;94899.34;5016980;28;20608;-69
2022/04/24 04:39:05;;;;;;;27.03;20.77;;;;;;;9.70;100.00;94913.25;5035786;28;20237;-70
2022/04/24 04:41:30;;;;;;;18.43;13.83;;;;;;;9.64;100.00;94904.63;5035769;28;20182;-70
2022/04/24 04:43:56;;;;;;;13.40;10.47;;;;;;;9.39;100.00;94908.13;5018201;28;20190;-70
2022/04/24 04:46:21;;;;;;;11.23;8.93;;;;;;;9.23;100.00;94903.19;5035217;28;20191;-69
2022/04/24 04:48:47;;;;;;;10.13;8.33;;;;;;;9.01;100.00;94911.31;5035554;28;20191;-70
2022/04/24 04:51:12;;;;;;;9.00;7.23;;;;;;;8.87;100.00;94918.88;5035242;28;20289;-68
2022/04/24 04:53:38;;;;;;;5.60;5.00;;;;;;;8.87;100.00;94921.47;5035256;28;20194;-70
2022/04/24 04:56:03;;;;;;;6.90;6.20;;;;;;;8.85;100.00;94928.81;5035244;28;20191;-69
2022/04/24 04:58:29;;;;;;;5.80;5.20;;;;;;;8.78;100.00;94930.91;5034918;28;20182;-70
2022/04/24 05:00:55;;;;;;;5.03;4.53;;;;;;;8.66;100.00;94932.97;5034220;28;20222;-69
2022/04/24 05:03:21;;;;;;;6.27;4.30;;;;;;;8.67;100.00;94924.09;5034661;28;20283;-69
2022/04/24 05:05:46;;;;;;;5.60;4.07;;;;;;;8.74;100.00;94925.41;5017139;28;20965;-69
2022/04/24 05:08:12;;;;;;;5.83;3.83;;;;;;;8.63;100.00;94923.84;5035073;28;20214;-70
2022/04/24 05:10:37;;;;;;;4.33;3.87;;;;;;;8.61;100.00;94923.31;5035196;28;20183;-69
2022/04/24 05:13:02;;;;;;;4.67;4.27;;;;;;;8.52;100.00;94927.47;5034797;28;20668;-70
2022/04/24 05:15:28;;;;;;;4.40;4.07;;;;;;;8.47;100.00;94929.31;5034518;28;20186;-69
2022/04/24 05:17:53;;;;;;;3.70;3.50;;;;;;;8.33;100.00;94932.41;5034777;28;20182;-70
2022/04/24 05:20:19;;;;;;;3.50;3.30;;;;;;;8.31;100.00;94933.69;5034841;28;20641;-70
2022/04/24 05:22:44;;;;;;;4.17;3.97;;;;;;;8.21;100.00;94931.81;5029607;28;20471;-70
2022/04/24 05:25:12;;;;;;;4.87;4.67;;;;;;;8.09;100.00;94944.28;5034310;28;20178;-70
2022/04/24 05:27:38;;;;;;;4.87;4.40;;;;;;;8.06;100.00;94950.03;5034697;28;20665;-69
2022/04/24 05:30:05;;;;;;;5.07;4.60;;;;;;;7.94;100.00;94952.84;5034663;28;20186;-69
2022/04/24 05:32:48;;;;;;;4.07;3.97;;;;;;;7.86;100.00;94958.53;5034106;28;20290;-69
2022/04/24 05:35:15;;;;;;;5.20;5.00;;;;;;;7.90;100.00;94954.41;5034518;28;20175;-69
2022/04/24 05:37:40;;;;;;;4.93;4.73;;;;;;;7.93;100.00;94969.53;5034721;28;20241;-68
2022/04/24 05:40:06;;;;;;;4.00;3.90;;;;;;;7.83;100.00;94971.31;5034321;28;20187;-69
2022/04/24 05:42:33;;;;;;;3.77;3.57;;;;;;;7.76;100.00;94961.09;5034203;28;20229;-70
2022/04/24 05:45:01;;;;;;;5.10;4.90;;;;;;;7.75;100.00;94966.56;5018299;28;20530;-69
2022/04/24 05:47:27;;;;;;;5.03;4.83;;;;;;;7.82;100.00;94967.13;5034239;28;20206;-69
2022/04/24 05:49:52;;;;;;;5.67;5.47;;;;;;;7.64;100.00;94970.16;5034173;28;20645;-69
2022/04/24 05:52:18;;;;;;;4.37;4.27;;;;;;;7.68;100.00;94979.84;5034039;28;20210;-69
2022/04/24 05:54:43;;;;;;;4.43;4.23;;;;;;;7.63;100.00;94979.03;5034137;28;20182;-69
2022/04/24 05:57:09;;;;;;;4.67;4.43;;;;;;;7.60;100.00;94959.47;5034189;28;20938;-70
2022/04/24 05:59:34;;;;;;;4.23;4.13;;;;;;;7.66;100.00;94973.31;5016354;28;20547;-69
2022/04/24 06:01:59;;;;;;;4.57;4.43;;;;;;;7.52;100.00;94963.31;5034308;28;20600;-70
2022/04/24 06:04:25;;;;;;;4.47;4.30;;;;;;;7.61;100.00;94963.66;5033908;28;20222;-70
2022/04/24 06:06:51;;;;;;;4.13;4.03;;;;;;;7.69;100.00;94967.59;5033891;28;20644;-70
2022/04/24 06:09:18;;;;;;;4.00;3.63;;;;;;;7.50;100.00;94964.63;5033682;28;20211;-70
2022/04/24 06:11:44;;;;;;;4.10;4.00;;;;;;;7.52;100.00;94971.13;5015885;28;20206;-70
2022/04/24 06:14:09;;;;;;;3.47;3.37;;;;;;;7.42;100.00;94970.28;5015900;28;20277;-71
2022/04/24 06:16:36;;;;;;;4.30;4.17;;;;;;;7.46;100.00;94979.19;5033905;28;20175;-70
2022/04/24 06:19:01;;;;;;;3.10;3.00;;;;;;;7.49;100.00;94984.69;5033895;28;20285;-70
2022/04/24 06:21:27;;;;;;;3.77;3.57;;;;;;;7.56;100.00;94970.66;5033088;28;20214;-70
2022/04/24 06:23:52;;;;;;;5.07;4.80;;;;;;;7.52;100.00;94965.16;5033601;28;20524;-70
2022/04/24 06:26:17;;;;;;;4.00;3.90;;;;;;;7.53;100.00;94964.88;5015933;28;20209;-70
2022/04/24 06:28:43;;;;;;;4.20;4.10;;;;;;;7.55;100.00;94977.69;5033474;28;20197;-70
2022/04/24 06:31:08;;;;;;;4.67;4.53;;;;;;;7.35;100.00;94973.13;5015816;28;20210;-70
2022/04/24 06:33:33;;;;;;;4.73;4.53;;;;;;;7.28;100.00;94977.00;5032606;28;20539;-70
2022/04/24 06:36:00;;;;;;;5.07;4.87;;;;;;;7.42;100.00;94972.91;5033854;28;20194;-68
2022/04/24 06:38:25;;;;;;;5.10;4.90;;;;;;;7.48;100.00;94970.06;5015794;28;20664;-70
2022/04/24 06:40:50;;;;;;;4.70;4.50;;;;;;;7.57;100.00;94980.03;5033167;28;20179;-71
2022/04/24 06:43:16;;;;;;;4.50;4.37;;;;;;;7.60;100.00;94974.31;5033250;28;20174;-71
2022/04/24 06:45:43;;;;;;;4.60;4.50;;;;;;;7.45;100.00;94972.41;5033510;28;20190;-71
2022/04/24 06:48:13;;;;;;;5.20;5.00;;;;;;;7.49;100.00;94973.47;5033495;28;20187;-71
2022/04/24 06:50:41;;;;;;;5.43;5.23;;;;;;;7.57;100.00;94980.84;5033342;28;20213;-73
2022/04/24 06:53:08;;;;;;;6.10;5.80;;;;;;;7.72;100.00;94980.13;5032918;28;20249;-72
2022/04/24 06:55:36;;;;;;;5.60;5.40;;;;;;;7.80;100.00;94984.88;5033084;28;20182;-71
2022/04/24 06:58:03;;;;;;;4.83;4.63;;;;;;;7.77;100.00;94975.72;5034075;28;20214;-76
2022/04/24 07:00:31;;;;;;;4.00;3.90;;;;;;;8.55;100.00;94984.41;5034630;28;20189;-79
2022/04/24 07:02:56;;;;;;;4.47;4.37;;;;;;;8.44;100.00;94987.22;5033065;28;20230;-72
2022/04/24 07:05:27;;;;;;;5.53;5.33;;;;;;;8.19;100.00;94980.84;5016218;28;20269;-73
2022/04/24 07:07:53;;;;;;;6.30;6.00;;;;;;;8.12;100.00;94982.16;5033616;28;20191;-74
2022/04/24 07:10:19;;;;;;;6.57;6.30;;;;;;;7.94;100.00;94991.19;5033538;28;20205;-73
2022/04/24 07:12:52;;;;;;;6.70;6.37;;;;;;;7.94;100.00;95004.25;5035054;28;20283;-76
2022/04/24 07:15:18;;;;;;;6.07;5.87;;;;;;;8.00;100.00;95010.25;5035823;28;20719;-74
2022/04/24 07:17:45;;;;;;;5.97;5.77;;;;;;;8.01;100.00;95017.84;5037386;28;20186;-78
2022/04/24 07:20:12;;;;;;;6.67;6.37;;;;;;;7.99;100.00;95012.09;5037079;28;20182;-76
2022/04/24 07:22:45;;;;;;;6.73;6.43;;;;;;;7.99;100.00;95017.31;5016207;28;20285;-73
2022/04/24 07:25:13;;;;;;;5.93;5.73;;;;;;;8.06;100.00;95024.91;5016120;28;20214;-73
2022/04/24 07:27:39;;;;;;;7.10;6.80;;;;;;;8.06;100.00;95028.31;5035088;28;20185;-74
2022/04/24 07:30:05;;;;;;;6.23;6.03;;;;;;;8.11;100.00;95030.16;5036120;28;20179;-74
2022/04/24 07:32:38;;;;;;;5.67;5.47;;;;;;;8.22;100.00;95040.38;5034896;28;20206;-75
2022/04/24 07:35:04;;;;;;;5.43;5.23;;;;;;;8.21;100.00;95038.81;5020030;28;20179;-74
2022/04/24 07:37:32;;;;;;;5.87;5.67;;;;;;;8.14;100.00;95034.84;5034761;28;20618;-75
2022/04/24 07:39:58;;;;;;;6.33;6.03;;;;;;;8.21;100.00;95040.63;5017628;28;20178;-74
2022/04/24 07:42:23;;;;;;;6.37;6.07;;;;;;;8.19;100.00;95040.88;5034213;28;20248;-75
2022/04/24 07:44:51;;;;;;;6.97;6.67;;;;;;;8.14;100.00;95042.66;5035066;28;20213;-77
2022/04/24 07:47:16;;;;;;;6.47;6.17;;;;;;;8.13;100.00;95052.34;5035884;28;20187;-79
2022/04/24 07:49:41;;;;;;;6.47;6.07;;;;;;;8.10;100.00;95037.19;5033058;28;20310;-78
2022/04/24 07:52:07;;;;;;;5.93;5.53;;;;;;;8.12;100.00;95042.16;5015325;28;20233;-79
2022/04/24 07:54:32;;;;;;;5.90;5.67;;;;;;;8.00;100.00;95025.91;5032609;28;20194;-77
2022/04/24 07:56:58;;;;;;;5.87;5.57;;;;;;;8.04;100.00;95035.59;5031153;28;20610;-76
2022/04/24 07:59:23;;;;;;;6.37;6.03;;;;;;;8.03;100.00;95034.00;5015154;28;20186;-78
2022/04/24 08:01:51;;;;;;;6.17;5.97;;;;;;;8.09;100.00;95040.81;5032622;28;20282;-77
2022/04/24 08:04:17;;;;;;;6.33;6.03;;;;;;;8.22;100.00;95034.38;5033038;28;20234;-80
2022/04/24 08:06:42;;;;;;;7.43;6.87;;;;;;;8.43;100.00;95037.88;5034849;28;20244;-79
2022/04/24 08:09:08;;;;;;;6.40;6.10;;;;;;;8.47;100.00;95049.41;5032094;28;20186;-76
2022/04/24 08:11:33;;;;;;;6.30;6.00;;;;;;;8.33;100.00;95044.63;5032743;28;20237;-75
2022/04/24 08:13:58;;;;;;;5.97;5.67;;;;;;;8.56;100.00;95055.69;5032374;28;20648;-74
2022/04/24 08:16:26;;;;;;;6.10;5.90;;;;;;;8.47;100.00;95047.53;5032066;28;20656;-75
2022/04/24 08:18:52;;;;;;;6.07;5.77;;;;;;;8.60;100.00;95048.91;5032272;28;20183;-76
2022/04/24 08:21:17;;;;;;;5.60;5.27;;;;;;;8.76;100.00;95056.53;5032647;28;20186;-76
2022/04/24 08:23:43;;;;;;;6.63;6.33;;;;;;;8.79;100.00;95051.84;5031709;28;20733;-75
2022/04/24 08:26:10;;;;;;;6.23;5.93;;;;;;;8.57;100.00;95062.47;5028726;28;20672;-75
2022/04/24 08:28:35;;;;;;;7.10;6.80;;;;;;;8.87;100.00;95061.75;5028270;28;20198;-74
2022/04/24 08:31:01;;;;;;;5.83;5.63;;;;;;;8.90;100.00;95066.50;5012874;28;20298;-76
2022/04/24 08:33:26;;;;;;;5.63;5.43;;;;;;;8.83;100.00;95071.97;5029668;28;20244;-75
2022/04/24 08:35:52;;;;;;;6.53;6.23;;;;;;;8.67;100.00;95078.97;5034836;28;20178;-75
2022/04/24 08:38:17;;;;;;;6.13;5.73;;;;;;;8.74;100.00;95086.56;5034063;28;20991;-75
2022/04/24 08:40:44;;;;;;;6.03;5.73;;;;;;;8.79;100.00;95081.34;5035237;28;20190;-76
2022/04/24 08:43:09;;;;;;;5.87;5.67;;;;;;;8.69;100.00;95083.94;5032907;28;20186;-74
2022/04/24 08:45:39;;;;;;;6.83;6.53;;;;;;;8.80;100.00;95090.78;5035774;28;20644;-75
2022/04/24 08:48:05;;;;;;;5.60;5.40;;;;;;;8.72;100.00;95086.81;5030113;28;20614;-77
2022/04/24 08:50:32;;;;;;;7.00;6.50;;;;;;;8.88;100.00;95092.09;5034868;28;20183;-75
2022/04/24 08:52:58;;;;;;;6.30;6.00;;;;;;;8.85;100.00;95093.41;5034839;28;20288;-75
2022/04/24 08:55:26;;;;;;;6.33;6.03;;;;;;;8.96;100.00;95099.44;5034646;28;20266;-76
2022/04/24 08:57:52;;;;;;;6.33;6.03;;;;;;;8.97;100.00;95091.31;5034657;28;20197;-75
2022/04/24 09:00:18;;;;;;;5.93;5.73;;;;;;;9.12;100.00;95098.41;5034976;28;20542;-75
2022/04/24 09:02:43;;;;;;;6.50;6.10;;;;;;;9.09;100.00;95096.31;5016594;28;20293;-72
2022/04/24 09:05:09;;;;;;;6.10;5.80;;;;;;;9.03;100.00;95099.94;5035522;28;20171;-74
2022/04/24 09:07:34;;;;;;;6.13;5.83;;;;;;;9.04;100.00;95099.69;5034998;28;20192;-74
2022/04/24 09:10:04;;;;;;;5.63;5.43;;;;;;;9.11;100.00;95099.47;5035177;28;20191;-75
2022/04/24 09:12:30;;;;;;;6.10;5.80;;;;;;;9.15;100.00;95092.66;5035576;28;20198;-75
2022/04/24 09:14:59;;;;;;;5.37;5.17;;;;;;;9.20;100.00;95100.50;5034977;28;20190;-73
2022/04/24 09:17:25;;;;;;;5.60;5.30;;;;;;;9.19;100.00;95104.19;5035293;28;20175;-74
2022/04/24 09:19:52;;;;;;;5.47;5.17;;;;;;;9.13;100.00;95108.63;5016730;28;20190;-74
2022/04/24 09:22:18;;;;;;;5.83;5.63;;;;;;;9.19;100.00;95098.97;5034835;28;20175;-74
2022/04/24 09:24:55;;;;;;;5.93;5.73;;;;;;;9.00;100.00;95098.66;5035050;28;20179;-74
2022/04/24 09:27:30;;;;;;;6.53;6.13;;;;;;;9.15;100.00;95108.34;5034828;28;20166;-75
2022/04/24 09:30:08;;;;;;;6.20;5.87;;;;;;;9.41;100.00;95111.81;5035124;28;20206;-75
2022/04/24 09:32:46;;;;;;;6.23;5.93;;;;;;;9.05;100.00;95106.50;5033950;28;20202;-75
2022/04/24 09:35:33;;;;;;;6.40;6.03;;;;;;;9.29;100.00;95112.06;5033617;28;20627;-75
2022/04/24 09:38:17;;;;;;;6.30;6.03;;;;;;;9.25;100.00;95110.22;5034297;28;20190;-76
2022/04/24 09:40:45;;;;;;;6.77;6.47;;;;;;;9.33;100.00;95109.69;5027263;28;20210;-76
2022/04/24 09:43:12;;;;;;;6.07;5.67;;;;;;;9.30;100.00;95111.00;5034625;28;20236;-76
2022/04/24 09:45:46;;;;;;;6.03;5.73;;;;;;;9.43;100.00;95110.47;5033713;28;20212;-74
2022/04/24 09:48:17;;;;;;;6.53;6.23;;;;;;;9.44;100.00;95111.28;5016978;28;20179;-76
2022/04/24 09:50:42;;;;;;;5.47;5.20;;;;;;;9.22;100.00;95121.16;5034758;28;20174;-75
2022/04/24 09:53:14;;;;;;;6.47;6.17;;;;;;;9.46;100.00;95127.50;5034324;28;20256;-75
2022/04/24 09:55:41;;;;;;;6.73;6.43;;;;;;;9.49;100.00;95124.34;5016278;28;20179;-75
2022/04/24 09:58:08;;;;;;;7.53;7.10;;;;;;;9.43;100.00;95128.00;5016799;28;20309;-75
2022/04/24 10:00:34;;;;;;;6.93;6.63;;;;;;;9.35;100.00;95131.16;5016641;28;20183;-75
2022/04/24 10:03:02;;;;;;;8.13;7.73;;;;;;;9.23;100.00;95134.00;5033803;28;20284;-75
2022/04/24 10:05:29;;;;;;;6.77;6.37;;;;;;;9.31;100.00;95138.69;5033923;28;20182;-75
2022/04/24 10:07:55;;;;;;;7.43;7.03;;;;;;;9.45;100.00;95133.78;5033496;28;20641;-74
2022/04/24 10:10:20;;;;;;;6.77;6.47;;;;;;;9.47;100.00;95134.31;5033686;28;20178;-75
2022/04/24 10:12:48;;;;;;;7.17;6.87;;;;;;;9.54;100.00;95137.44;5033180;28;20199;-73
2022/04/24 10:15:16;;;;;;;6.67;6.37;;;;;;;9.49;100.00;95135.59;5034040;28;20182;-74
2022/04/24 10:18:03;;;;;;;6.90;6.50;;;;;;;9.39;100.00;95138.19;5033483;28;20187;-75
2022/04/24 10:20:57;;;;;;;6.93;6.63;;;;;;;9.66;100.00;95145.81;5032286;28;20525;-75
2022/04/24 10:23:33;;;;;;;7.03;6.73;;;;;;;9.54;100.00;95147.88;5033800;28;20175;-76
2022/04/24 10:25:59;;;;;;;7.40;7.00;;;;;;;9.70;100.00;95141.63;5034213;28;20170;-75
2022/04/24 10:28:37;;;;;;;8.20;7.80;;;;;;;9.80;100.00;95143.47;5016030;28;20185;-75
2022/04/24 10:31:04;;;;;;;7.87;7.37;;;;;;;9.67;100.00;95154.44;5037081;28;20182;-74
2022/04/24 10:33:32;;;;;;;7.93;7.33;;;;;;;9.99;100.00;95149.75;5033895;28;20241;-72
2022/04/24 10:36:02;;;;;;;7.43;6.83;;;;;;;9.81;100.00;95145.03;5032759;28;20182;-74
2022/04/24 10:38:30;;;;;;;6.93;6.53;;;;;;;9.91;100.00;95145.06;5033406;28;20187;-73
2022/04/24 10:41:00;;;;;;;7.87;7.47;;;;;;;10.29;100.00;95152.38;5033510;28;20182;-71
2022/04/24 10:43:35;;;;;;;7.10;6.70;;;;;;;10.33;100.00;95157.84;5032892;28;20498;-72
2022/04/24 10:46:00;;;;;;;6.40;6.07;;;;;;;10.19;100.00;95146.38;5015372;28;20186;-74
2022/04/24 10:48:35;;;;;;;5.67;5.47;;;;;;;10.32;100.00;95153.66;5033836;28;20193;-73
2022/04/24 10:51:00;;;;;;;4.90;4.70;;;;;;;10.29;100.00;95156.81;5033027;28;20210;-73
2022/04/24 10:53:26;;;;;;;5.30;5.00;;;;;;;10.39;100.00;95162.81;5032365;28;20214;-73
2022/04/24 10:56:04;;;;;;;4.43;4.13;;;;;;;10.38;100.00;95155.22;5032767;28;20262;-72
2022/04/24 10:58:29;;;;;;;5.33;5.03;;;;;;;10.03;100.00;95158.63;5032111;28;20183;-73
2022/04/24 11:01:08;;;;;;;5.20;4.80;;;;;;;10.12;100.00;95158.91;5032702;28;20187;-73
2022/04/24 11:03:40;;;;;;;4.70;4.47;;;;;;;10.00;100.00;95164.41;5032458;28;20700;-73
2022/04/24 11:06:16;;;;;;;6.10;5.80;;;;;;;10.03;100.00;95171.72;5032362;28;20170;-73
2022/04/24 11:08:41;;;;;;;5.73;5.43;;;;;;;10.01;100.00;95171.22;5032267;28;20640;-73
2022/04/24 11:11:08;;;;;;;3.97;3.77;;;;;;;9.93;100.00;95182.97;5014897;28;20171;-73
2022/04/24 11:13:36;;;;;;;4.47;4.27;;;;;;;9.80;100.00;95180.09;5014782;28;20719;-74
2022/04/24 11:16:03;;;;;;;5.43;5.13;;;;;;;9.94;100.00;95174.09;5032053;28;20179;-73
2022/04/24 11:18:28;;;;;;;5.03;4.83;;;;;;;10.02;100.00;95178.81;5032188;28;20182;-73
2022/04/24 11:21:00;;;;;;;4.73;4.53;;;;;;;10.05;100.00;95174.88;5032607;28;20304;-73
2022/04/24 11:23:27;;;;;;;5.70;5.43;;;;;;;10.11;100.00;95180.88;5032891;28;20179;-74